createdAt,value
2022-09-07T00:03:32.043Z,99.90
2022-09-07T00:08:37.369Z,99.90
2022-09-07T00:13:44.419Z,99.90
2022-09-07T00:24:20.652Z,99.90
2022-09-07T00:29:25.952Z,99.90
2022-09-07T00:34:31.104Z,99.90
2022-09-07T00:39:37.615Z,99.90
2022-09-07T00:45:05.497Z,99.90
2022-09-07T00:50:19.455Z,99.90
2022-09-07T00:55:25.247Z,99.90
2022-09-07T01:00:31.431Z,99.90
2022-09-07T01:05:39.651Z,99.90
2022-09-07T01:10:46.509Z,99.90
2022-09-07T01:15:54.921Z,99.90
2022-09-07T01:21:24.244Z,99.90
2022-09-07T01:26:35.829Z,99.90
2022-09-07T01:31:58.956Z,99.90
2022-09-07T01:37:29.584Z,99.90
2022-09-07T01:42:37.967Z,99.90
2022-09-07T01:47:52.365Z,99.90
2022-09-07T01:53:01.369Z,99.90
2022-09-07T01:58:24.681Z,99.90
2022-09-07T02:03:35.715Z,99.90
2022-09-07T02:08:58.670Z,99.90
2022-09-07T02:14:15.653Z,99.90
2022-09-07T02:19:25.156Z,99.90
2022-09-07T02:24:34.468Z,99.90
2022-09-07T02:29:40.456Z,99.90
2022-09-07T02:34:46.722Z,99.90
2022-09-07T02:39:52.723Z,99.90
2022-09-07T02:44:58.372Z,99.90
2022-09-07T02:50:30.204Z,99.90
2022-09-07T02:55:57.798Z,99.90
2022-09-07T03:01:30.328Z,99.90
2022-09-07T03:06:38.585Z,99.90
2022-09-07T03:11:43.994Z,99.90
2022-09-07T03:16:54.721Z,99.90
2022-09-07T03:22:00.007Z,99.90
2022-09-07T03:27:05.283Z,99.90
2022-09-07T03:32:10.822Z,99.90
2022-09-07T03:37:16.591Z,99.90
2022-09-07T03:42:22.765Z,99.90
2022-09-07T03:47:27.870Z,99.90
2022-09-07T03:52:33.125Z,99.90
2022-09-07T03:57:39.261Z,99.90
2022-09-07T04:02:44.505Z,99.90
2022-09-07T04:07:50.332Z,99.90
2022-09-07T04:12:55.459Z,99.90
2022-09-07T04:18:02.824Z,99.90
2022-09-07T04:23:08.111Z,99.90
2022-09-07T04:28:14.439Z,99.90
2022-09-07T04:33:24.178Z,99.90
2022-09-07T04:38:30.665Z,99.90
2022-09-07T04:43:36.632Z,99.90
2022-09-07T04:48:42.145Z,99.90
2022-09-07T04:53:52.015Z,99.90
2022-09-07T04:58:57.805Z,99.90
2022-09-07T05:04:05.665Z,99.90
2022-09-07T05:09:14.690Z,99.90
2022-09-07T05:14:25.633Z,99.90
2022-09-07T05:19:34.820Z,99.90
2022-09-07T05:24:46.069Z,99.90
2022-09-07T05:35:07.066Z,99.90
2022-09-07T05:40:19.389Z,99.90
2022-09-07T05:45:27.731Z,99.90
2022-09-07T05:50:33.707Z,99.90
2022-09-07T05:55:41.548Z,99.90
2022-09-07T06:00:47.626Z,99.90
2022-09-07T06:06:13.786Z,99.90
2022-09-07T06:11:24.076Z,99.90
2022-09-07T06:16:31.021Z,99.90
2022-09-07T06:21:40.227Z,99.90
2022-09-07T06:26:46.136Z,99.90
2022-09-07T06:37:04.723Z,99.90
2022-09-07T06:42:12.687Z,99.90
2022-09-07T06:47:19.570Z,99.90
2022-09-07T06:57:35.858Z,99.90
2022-09-07T07:02:41.200Z,99.90
2022-09-07T07:07:47.670Z,97.30
2022-09-07T07:12:55.000Z,95.30
2022-09-07T07:18:09.639Z,95.80
2022-09-07T07:23:08.036Z,95.50
2022-09-07T07:33:21.365Z,90.00
2022-09-07T07:43:35.117Z,87.40
2022-09-07T07:48:42.171Z,85.70
2022-09-07T07:53:47.647Z,82.80
2022-09-07T07:58:53.987Z,83.90
2022-09-07T08:03:59.694Z,79.90
2022-09-07T08:09:05.076Z,81.20
2022-09-07T08:14:10.471Z,77.20
2022-09-07T08:19:16.215Z,77.10
2022-09-07T08:24:21.488Z,72.50
2022-09-07T08:29:27.237Z,68.30
2022-09-07T08:34:39.288Z,67.10
2022-09-07T08:39:44.573Z,67.30
2022-09-07T08:44:54.203Z,65.80
2022-09-07T08:50:11.437Z,59.20
2022-09-07T08:55:15.867Z,58.90
2022-09-07T09:00:22.803Z,56.40
2022-09-07T09:05:54.801Z,56.80
2022-09-07T09:11:18.710Z,55.20
2022-09-07T09:16:27.175Z,52.40
2022-09-07T09:21:38.024Z,53.40
2022-09-07T09:31:58.173Z,51.50
2022-09-07T09:37:03.446Z,49.60
2022-09-07T09:42:21.881Z,49.40
2022-09-07T09:47:38.976Z,50.50
2022-09-07T09:52:51.781Z,48.40
2022-09-07T10:08:37.640Z,46.00
2022-09-07T10:13:51.647Z,46.70
2022-09-07T10:19:04.102Z,46.70
2022-09-07T10:24:16.012Z,45.00
2022-09-07T10:29:36.000Z,45.00
2022-09-07T10:35:00.319Z,45.80
2022-09-07T10:40:26.826Z,43.70
2022-09-07T10:45:38.399Z,43.80
2022-09-07T10:50:53.275Z,44.00
2022-09-07T10:56:01.598Z,43.90
2022-09-07T11:01:28.582Z,42.70
2022-09-07T11:07:19.100Z,42.90
2022-09-07T11:12:26.042Z,43.80
2022-09-07T11:17:33.239Z,43.30
2022-09-07T11:23:03.932Z,42.80
2022-09-07T11:34:48.068Z,44.00
2022-09-07T11:39:57.694Z,42.40
2022-09-07T11:45:09.995Z,45.50
2022-09-07T11:50:23.050Z,44.80
2022-09-07T11:55:34.870Z,45.20
2022-09-07T12:01:03.141Z,44.10
2022-09-07T12:06:24.202Z,43.30
2022-09-07T12:11:34.932Z,44.80
2022-09-07T12:16:45.879Z,42.80
2022-09-07T12:21:59.886Z,42.50
2022-09-07T12:27:27.871Z,43.90
2022-09-07T12:32:55.842Z,44.60
2022-09-07T12:38:37.841Z,46.80
2022-09-07T12:43:49.494Z,46.50
2022-09-07T12:49:05.103Z,46.40
2022-09-07T12:54:33.721Z,46.80
2022-09-07T13:00:04.585Z,46.90
2022-09-07T13:05:33.815Z,45.20
2022-09-07T13:10:52.055Z,43.50
2022-09-07T13:16:08.999Z,44.90
2022-09-07T13:21:24.626Z,44.60
2022-09-07T13:26:53.881Z,44.90
2022-09-07T13:32:08.189Z,44.10
2022-09-07T13:37:22.575Z,43.40
2022-09-07T13:42:33.408Z,45.20
2022-09-07T13:47:47.557Z,44.70
2022-09-07T13:53:22.223Z,43.00
2022-09-07T13:58:37.271Z,44.70
2022-09-07T14:03:54.368Z,43.90
2022-09-07T14:09:09.266Z,44.60
2022-09-07T14:14:27.789Z,45.10
2022-09-07T14:19:49.301Z,45.00
2022-09-07T14:25:01.731Z,45.20
2022-09-07T14:30:22.053Z,46.20
2022-09-07T14:35:38.303Z,46.50
2022-09-07T14:40:51.506Z,45.10
2022-09-07T14:46:03.713Z,45.30
2022-09-07T14:51:30.187Z,44.80
2022-09-07T14:56:28.547Z,46.00
2022-09-07T15:01:41.441Z,46.40
2022-09-07T15:07:07.609Z,46.50
2022-09-07T15:12:11.545Z,45.20
2022-09-07T15:17:44.534Z,46.30
2022-09-07T15:22:36.433Z,46.60
2022-09-07T15:27:41.666Z,46.70
2022-09-07T15:32:46.911Z,47.00
2022-09-07T15:38:59.440Z,48.40
2022-09-07T15:43:00.557Z,47.30
2022-09-07T15:48:06.105Z,48.20
2022-09-07T15:58:18.576Z,49.10
2022-09-07T16:03:23.886Z,48.40
2022-09-07T16:08:32.739Z,48.80
2022-09-07T16:13:36.406Z,49.30
2022-09-07T16:18:41.882Z,49.80
2022-09-07T16:23:50.733Z,50.50
2022-09-07T16:28:56.140Z,50.30
2022-09-07T16:34:04.008Z,51.60
2022-09-07T16:39:11.435Z,52.40
2022-09-07T16:44:17.026Z,54.70
2022-09-07T16:49:23.016Z,55.30
2022-09-07T16:54:28.298Z,56.80
2022-09-07T16:59:33.656Z,57.60
2022-09-07T17:04:38.907Z,58.30
2022-09-07T17:09:44.175Z,58.90
2022-09-07T17:14:49.580Z,59.60
2022-09-07T17:19:56.579Z,60.10
2022-09-07T17:25:01.806Z,62.40
2022-09-07T17:30:07.395Z,62.50
2022-09-07T17:35:21.499Z,63.30
2022-09-07T17:40:27.070Z,65.00
2022-09-07T17:45:33.656Z,66.20
2022-09-07T17:50:43.273Z,67.70
2022-09-07T17:55:48.448Z,67.80
2022-09-07T18:00:54.599Z,67.30
2022-09-07T18:06:00.607Z,68.40
2022-09-07T18:16:22.392Z,68.10
2022-09-07T18:21:33.559Z,67.80
2022-09-07T18:26:39.715Z,66.80
2022-09-07T18:31:45.734Z,67.50
2022-09-07T18:36:51.357Z,68.10
2022-09-07T18:41:56.685Z,68.20
2022-09-07T18:47:03.530Z,69.20
2022-09-07T18:57:15.710Z,70.70
2022-09-07T19:02:21.273Z,72.30
2022-09-07T19:07:29.889Z,74.00
2022-09-07T19:12:33.365Z,74.90
2022-09-07T19:17:38.970Z,75.70
2022-09-07T19:22:44.189Z,74.60
2022-09-07T19:27:49.468Z,75.10
2022-09-07T19:32:54.770Z,75.50
2022-09-07T19:38:00.138Z,75.40
2022-09-07T19:43:05.396Z,75.10
2022-09-07T19:48:10.670Z,74.80
2022-09-07T19:53:15.924Z,75.80
2022-09-07T19:58:21.134Z,76.50
2022-09-07T20:03:26.855Z,78.20
2022-09-07T20:08:32.179Z,79.30
2022-09-07T20:13:38.230Z,79.70
2022-09-07T20:18:44.540Z,80.20
2022-09-07T20:23:50.072Z,81.80
2022-09-07T20:29:11.049Z,83.20
2022-09-07T20:34:03.170Z,84.60
2022-09-07T20:39:08.509Z,86.90
2022-09-07T20:44:14.613Z,87.70
2022-09-07T20:49:19.743Z,88.50
2022-09-07T20:54:35.186Z,89.00
2022-09-07T20:59:40.362Z,90.10
2022-09-07T21:04:45.524Z,89.60
2022-09-07T21:09:51.473Z,89.00
2022-09-07T21:14:56.679Z,89.90
2022-09-07T21:20:01.797Z,89.80
2022-09-07T21:25:07.493Z,90.20
2022-09-07T21:30:13.331Z,90.70
2022-09-07T21:35:19.358Z,91.60
2022-09-07T21:40:25.292Z,91.80
2022-09-07T21:45:32.176Z,92.90
2022-09-07T21:50:37.442Z,93.00
2022-09-07T21:55:42.579Z,93.00
2022-09-07T22:00:47.737Z,92.90
2022-09-07T22:05:53.555Z,92.70
2022-09-07T22:11:07.645Z,92.50
2022-09-07T22:16:13.892Z,92.40
2022-09-07T22:21:22.039Z,92.40
2022-09-07T22:26:29.750Z,92.00
2022-09-07T22:31:36.793Z,93.20
2022-09-07T22:36:44.413Z,93.20
2022-09-07T22:41:49.722Z,93.40
2022-09-07T22:46:54.868Z,93.70
2022-09-07T22:52:00.117Z,94.70
2022-09-07T22:57:05.526Z,95.40
2022-09-07T23:02:10.885Z,95.80
2022-09-07T23:07:16.253Z,96.50
2022-09-07T23:12:21.545Z,97.40
2022-09-07T23:17:26.605Z,97.20
2022-09-07T23:22:32.142Z,97.40
2022-09-07T23:27:37.384Z,96.80
2022-09-07T23:32:42.648Z,96.00
2022-09-07T23:37:47.780Z,95.60
2022-09-07T23:42:53.663Z,94.90
2022-09-07T23:47:58.970Z,94.80
2022-09-07T23:53:04.296Z,94.60
2022-09-07T23:58:10.858Z,94.20
